Station APNM4 - Alpena Harbor Light, Alpena, MI Image indicating link to RSS feed of recent meteorological observations for station APNM4


Conditions at APNM4 as of
(2:40 pm EDT)
1840 GMT on 05/28/2024:
     

Click on the graph icon in the table below to see a time series plot of the last five days of that observation.

5-day plot - Wind Direction Wind Direction (WDIR): N ( 350 deg true )
5-day plot - Wind Speed Wind Speed (WSPD): 13 kts
5-day plot - Wind Gust Wind Gust (GST): 20 kts
5-day plot - Air Temperature Air Temperature (ATMP): 67.8 °F
5-day plot -  Wind Speed, Wind Gust and Atmospheric Pressure Combined plot of Wind Speed, Gust, and Air Pressure
Previous observations
TIME
(EDT)
5-day plot - Wind Direction
WDIR
 
5-day plot - Wind Speed
WSPD
kts
5-day plot - Wind Gust
GST
kts
5-day plot - Wave Height
WVHT
ft
5-day plot - Dominant Wave Period
DPD
sec
5-day plot - Average Wave Period
APD
sec
5-day plot - Mean Wave Direction
MWD
 
5-day plot - Atmospheric Pressure
PRES
in
5-day plot - Pressure Tendency
PTDY
in
5-day plot - Air Temperature
ATMP
°F
5-day plot - Water Temperature
WTMP
°F
5-day plot - Dew Point
DEWP
°F
5-day plot - Salinity
SAL
psu
5-day plot - Visibility
VIS
nmi
5-day plot - Tide (above MLLW)
TIDE
ft
2024-05-28 02:30 pmNNW 15 21------ 68.0-----
2024-05-28 02:20 pm NW 15 20------ 67.6-----
2024-05-28 02:10 pmNNW 14 19------ 67.1-----
2024-05-28 02:00 pm N 13 17------ 67.5-----
2024-05-28 01:50 pmNNW 11 15------ 67.8-----
2024-05-28 01:40 pm N 12 17------ 67.8-----
2024-05-28 01:30 pmNNW 14 17------ 67.1-----
2024-05-28 01:20 pm NW 12 16------ 67.1-----
2024-05-28 01:10 pm NW 17 22------ 66.7-----
2024-05-28 01:00 pm NW 15 21------ 66.6-----
2024-05-28 12:50 pmNNW 10 14------ 66.9-----
2024-05-28 12:40 pm NW 15 20------ 66.6-----
2024-05-28 12:30 pm N 10 17------ 66.9-----
2024-05-28 12:20 pmNNW 11 15------ 66.7-----
2024-05-28 12:10 pm NW 10 16------ 66.2-----
2024-05-28 12:00 pmNNW 13 17------ 66.4-----
2024-05-28 11:50 amNNW 11 16------ 66.2-----
2024-05-28 11:40 am NW 10 18------ 65.1-----
2024-05-28 11:30 am NW 9 14------ 64.9-----
2024-05-28 11:20 amWNW 10 12------ 63.9-----
2024-05-28 11:10 am NW 13 17------ 63.9-----
2024-05-28 11:00 am NW 6 8------ 63.3-----
2024-05-28 10:50 amNNW 9 12------ 62.8-----
2024-05-28 10:40 am NW 10 14------ 62.4-----
2024-05-28 10:30 am NW 11 13------ 61.7-----
2024-05-28 10:20 amNNW 7 9------ 61.3-----
2024-05-28 10:10 am NW 9 12------ 60.8-----
2024-05-28 10:00 am NW 12 13------ 60.3-----
2024-05-28 09:50 amNNW 9 12------ 60.6-----
2024-05-28 09:40 amWNW 11 13------ 59.5-----
2024-05-28 09:30 amWNW 10 13------ 59.5-----
2024-05-28 09:20 am NW 9 10------ 59.0-----
2024-05-28 09:10 am NW 11 16------ 58.3-----
2024-05-28 09:00 am NW 12 14------ 57.7-----
2024-05-28 08:50 am NW 11 15------ 57.2-----
2024-05-28 08:40 amWNW 9 11------ 57.0-----
2024-05-28 08:30 amWNW 9 11------ 56.3-----
2024-05-28 08:20 amWNW 11 15------ 55.4-----
2024-05-28 08:10 amWNW 9 11------ 54.3-----
2024-05-28 08:00 amWNW 10 12------ 53.8-----
2024-05-28 07:50 amWNW 11 14------ 53.6-----
2024-05-28 07:40 amWNW 10 11------ 53.6-----
2024-05-28 07:30 amWNW 8 10------ 54.0-----
2024-05-28 07:20 am NW 8 10------ 54.0-----
2024-05-28 07:10 am NW 8 9------ 54.1-----
2024-05-28 07:00 am NW 8 12------ 54.1-----
2024-05-28 06:50 amWNW 9 11------ 54.0-----
2024-05-28 06:40 amWNW 10 13------ 53.8-----
2024-05-28 06:30 am NW 9 11------ 54.0-----
2024-05-28 06:20 amWNW 9 12------ 54.0-----
2024-05-28 06:10 amWNW 9 12------ 53.8-----
2024-05-28 06:00 am NW 9 12------ 54.0-----
2024-05-28 05:50 amWNW 10 12------ 53.8-----
2024-05-28 05:40 amWNW 10 11------ 53.8-----
2024-05-28 05:30 amWNW 10 13------ 53.8-----
2024-05-28 05:20 amWNW 10 13------ 54.0-----
2024-05-28 05:10 amWNW 10 14------ 54.0-----
2024-05-28 05:00 amWNW 10 12------ 54.1-----
2024-05-28 04:50 amWNW 10 12------ 54.3-----
2024-05-28 04:40 amWNW 12 15------ 54.5-----
2024-05-28 04:30 amWNW 11 16------ 54.7-----
2024-05-28 04:20 amWNW 11 13------ 54.7-----
2024-05-28 04:10 amWNW 10 13------ 54.7-----
2024-05-28 04:00 amWNW 10 13------ 54.9-----
2024-05-28 03:50 amWNW 10 13------ 55.0-----
2024-05-28 03:40 amWNW 10 14------ 55.2-----
2024-05-28 03:30 amWNW 10 12------ 55.4-----
2024-05-28 03:20 amWNW 9 10------ 55.4-----
2024-05-28 03:10 amWNW 9 12------ 55.4-----
2024-05-28 03:00 amWNW 9 11------ 55.6-----
2024-05-28 02:50 amWNW 9 12------ 55.6-----
2024-05-28 02:40 amWNW 9 11------ 55.6-----
2024-05-28 02:30 amWNW 8 10------ 55.6-----
2024-05-28 02:20 amWNW 9 12------ 55.8-----
2024-05-28 02:10 amWNW 8 12------ 55.8-----
2024-05-28 02:00 amWNW 8 11------ 55.8-----
2024-05-28 01:50 amWNW 10 13------ 55.8-----
2024-05-28 01:40 amWNW 10 13------ 55.8-----
2024-05-28 01:30 amWNW 9 14------ 55.9-----
2024-05-28 01:20 amWNW 9 10------ 56.1-----
2024-05-28 01:10 amWNW 8 10------ 56.1-----
2024-05-28 01:00 amWNW 9 11------ 56.1-----
2024-05-28 12:50 amWNW 11 14------ 56.3-----
2024-05-28 12:40 am NW 8 9------ 56.7-----
2024-05-28 12:30 amWNW 8 10------ 56.8-----
2024-05-28 12:20 am NW 10 12------ 56.8-----
2024-05-28 12:10 am NW 11 15------ 57.0-----
2024-05-28 12:00 am NW 12 16------ 57.0-----
2024-05-27 11:50 pm NW 11 15------ 57.4-----
2024-05-27 11:40 pm NW 10 12------ 57.4-----
2024-05-27 11:30 pm NW 10 13------ 57.6-----
2024-05-27 11:20 pm NW 11 13------ 57.7-----
2024-05-27 11:10 pm NW 11 16------ 57.7-----
2024-05-27 11:00 pm NW 9 12------ 57.9-----
2024-05-27 10:50 pm NW 12 14------ 57.7-----
2024-05-27 10:40 pm NW 10 12------ 57.9-----
2024-05-27 10:30 pm NW 12 17------ 57.9-----
2024-05-27 10:20 pm NW 13 19------ 57.9-----
2024-05-27 10:10 pm NW 10 11------ 57.9-----
2024-05-27 10:00 pmWNW 14 17------ 57.9-----
2024-05-27 09:50 pmWNW 12 16------ 58.1-----
2024-05-27 09:40 pmWNW 12 17------ 58.1-----
2024-05-27 09:30 pmWNW 11 15------ 58.3-----
2024-05-27 09:20 pmWNW 12 15------ 58.5-----
2024-05-27 09:10 pm NW 11 13------ 58.8-----
2024-05-27 09:00 pmWNW 9 12------ 58.8-----
2024-05-27 08:50 pmWNW 10 12------ 58.8-----
2024-05-27 08:40 pm NW 11 15------ 58.8-----
2024-05-27 08:30 pm NW 13 16------ 58.6-----
2024-05-27 08:20 pm NW 10 12------ 58.6-----
2024-05-27 08:10 pm NW 11 14------ 58.6-----
2024-05-27 08:00 pm NW 9 11------ 59.0-----
2024-05-27 07:50 pm NW 9 13------ 59.0-----
2024-05-27 07:40 pm NW 7 10------ 59.0-----
2024-05-27 07:30 pm NW 13 16------ 59.0-----
2024-05-27 07:20 pm NW 9 14------ 59.0-----
2024-05-27 07:10 pmNNW 9 12------ 59.2-----
2024-05-27 07:00 pm NW 7 11------ 59.4-----
2024-05-27 06:50 pm NW 7 11------ 59.2-----
2024-05-27 06:40 pm NW 8 10------ 59.0-----
2024-05-27 06:30 pmNNW 7 10------ 58.8-----
2024-05-27 06:20 pmNNW 9 12------ 58.8-----
2024-05-27 06:10 pmNNW 7 10------ 58.8-----
2024-05-27 06:00 pmNNW 7 10------ 58.8-----
2024-05-27 05:50 pmNNW 9 13------ 58.8-----
2024-05-27 05:40 pmNNW 8 11------ 58.6-----
2024-05-27 05:30 pmNNW 6 10------ 58.5-----
2024-05-27 05:20 pmNNW 6 9------ 58.5-----
2024-05-27 05:10 pmNNW 9 12------ 58.1-----
2024-05-27 05:00 pmNNW 7 9------ 58.1-----
2024-05-27 04:50 pmNNW 7 9------ 57.9-----
2024-05-27 04:40 pmNNW 8 10------ 57.9-----
2024-05-27 04:30 pmNNW 7 9------ 58.1-----
2024-05-27 04:20 pmNNW 8 10------ 58.1-----
2024-05-27 04:10 pmNNW 7 8------ 58.1-----
2024-05-27 04:00 pmNNW 8 10------ 58.1-----
2024-05-27 03:50 pmNNW 7 9------ 58.5-----
2024-05-27 03:40 pm N 6 8------ 58.8-----
2024-05-27 03:30 pmNNW 4 5------ 59.2-----
2024-05-27 03:20 pmNNW 5 7------ 59.4-----
2024-05-27 03:10 pmNNW 5 6------ 59.5-----
2024-05-27 03:00 pmNNW 5 7------ 59.5-----
2024-05-27 02:50 pmNNW 4 5------ 59.9-----